Time;durP1;ratioP1;P1;durP2;ratioP2;P2;SDS_P1;SDS_P2;PMS_P1;PMS_P2;Temp;Humidity;BMP_temperature;BMP_pressure;BME280_temperature;BME280_humidity;BME280_pressure;Samples;Min_cycle;Max_cycle;Signal;HPM_P1;HPM_P2
2023/01/31 00:00:49;;;;;;;9.40;3.20;;;;;;;;;;5044368;28;20459;-80
2023/01/31 00:03:16;;;;;;;17.50;3.73;;;;;;;;;;5039113;28;20484;-78
2023/01/31 00:05:42;;;;;;;16.33;3.83;;;;;;;;;;5041623;28;20463;-79
2023/01/31 00:08:09;;;;;;;12.00;2.93;;;;;;;;;;5041379;28;20483;-80
2023/01/31 00:10:36;;;;;;;12.30;3.37;;;;;;;;;;5041881;28;20460;-79
2023/01/31 00:13:04;;;;;;;17.00;3.30;;;;;;;;;;5041341;28;21176;-79
2023/01/31 00:15:30;;;;;;;18.07;3.40;;;;;;;;;;5042690;28;20467;-79
2023/01/31 00:17:57;;;;;;;14.03;2.77;;;;;;;;;;5042377;28;20460;-80
2023/01/31 00:20:23;;;;;;;12.43;3.23;;;;;;;;;;5042435;28;20464;-80
2023/01/31 00:22:50;;;;;;;12.40;2.60;;;;;;;;;;5039706;28;21355;-80
2023/01/31 00:25:17;;;;;;;21.27;3.30;;;;;;;;;;5042813;28;20449;-79
2023/01/31 00:27:44;;;;;;;14.17;3.70;;;;;;;;;;5042154;28;21136;-80
2023/01/31 00:30:12;;;;;;;14.57;3.00;;;;;;;;;;5041694;28;20453;-80
2023/01/31 00:32:40;;;;;;;14.10;3.57;;;;;;;;;;5038114;28;20451;-80
2023/01/31 00:35:06;;;;;;;14.43;4.97;;;;;;;;;;5043198;28;20471;-79
2023/01/31 00:37:33;;;;;;;21.27;3.27;;;;;;;;;;5039340;28;20976;-80
2023/01/31 00:39:59;;;;;;;17.93;4.03;;;;;;;;;;5041964;28;20468;-80
2023/01/31 00:42:25;;;;;;;17.90;3.80;;;;;;;;;;5041798;28;20503;-79
2023/01/31 00:44:53;;;;;;;11.13;3.53;;;;;;;;;;5041261;28;20472;-80
2023/01/31 00:47:20;;;;;;;17.13;4.37;;;;;;;;;;5041692;28;20858;-80
2023/01/31 00:49:46;;;;;;;17.90;5.20;;;;;;;;;;5039346;28;20487;-80
2023/01/31 00:52:13;;;;;;;28.43;4.57;;;;;;;;;;5037795;28;20471;-80
2023/01/31 00:54:39;;;;;;;16.43;3.97;;;;;;;;;;5038816;28;21013;-79
2023/01/31 00:57:06;;;;;;;20.80;4.90;;;;;;;;;;5041157;28;20461;-79
2023/01/31 00:59:32;;;;;;;16.13;3.90;;;;;;;;;;5041340;28;20464;-80
2023/01/31 01:02:00;;;;;;;16.67;4.27;;;;;;;;;;5037564;28;20848;-79
2023/01/31 01:04:27;;;;;;;21.23;4.10;;;;;;;;;;5038311;28;20529;-79
2023/01/31 01:06:53;;;;;;;22.70;4.10;;;;;;;;;;5039237;28;20460;-80
2023/01/31 01:09:21;;;;;;;15.30;3.60;;;;;;;;;;5039120;28;20471;-79
2023/01/31 01:11:48;;;;;;;13.93;4.30;;;;;;;;;;5038098;28;20436;-80
2023/01/31 01:14:15;;;;;;;19.03;5.03;;;;;;;;;;5040126;28;20465;-79
2023/01/31 01:16:42;;;;;;;31.40;5.70;;;;;;;;;;5042347;28;20957;-80
2023/01/31 01:19:11;;;;;;;20.27;3.30;;;;;;;;;;5039142;28;20479;-80
2023/01/31 01:21:38;;;;;;;19.80;3.33;;;;;;;;;;5041125;28;20488;-79
2023/01/31 01:24:05;;;;;;;14.83;3.33;;;;;;;;;;5036213;28;20491;-80
2023/01/31 01:26:32;;;;;;;17.13;3.03;;;;;;;;;;5039050;28;20505;-79
2023/01/31 01:29:00;;;;;;;11.33;2.73;;;;;;;;;;5040355;28;21213;-79
2023/01/31 01:31:28;;;;;;;21.13;2.70;;;;;;;;;;5041522;28;21139;-80
2023/01/31 01:33:57;;;;;;;7.47;3.43;;;;;;;;;;5039809;28;20472;-80
2023/01/31 01:36:25;;;;;;;11.47;2.97;;;;;;;;;;5040032;28;20898;-80
2023/01/31 01:38:52;;;;;;;12.53;3.00;;;;;;;;;;5037983;28;20468;-79
2023/01/31 01:41:19;;;;;;;18.03;3.10;;;;;;;;;;5040308;28;20452;-79
2023/01/31 01:43:47;;;;;;;18.13;2.67;;;;;;;;;;5038371;28;20465;-79
2023/01/31 01:46:16;;;;;;;11.53;3.10;;;;;;;;;;5040097;28;20444;-79
2023/01/31 01:48:44;;;;;;;10.37;2.93;;;;;;;;;;5039504;28;20464;-80
2023/01/31 01:51:10;;;;;;;20.97;3.67;;;;;;;;;;5041027;28;20457;-79
2023/01/31 01:53:39;;;;;;;9.67;2.90;;;;;;;;;;5041335;28;20486;-80
2023/01/31 01:56:08;;;;;;;9.30;2.87;;;;;;;;;;5037115;28;20962;-80
2023/01/31 01:58:39;;;;;;;14.20;3.67;;;;;;;;;;5038115;28;20464;-79
2023/01/31 02:01:06;;;;;;;8.80;2.60;;;;;;;;;;5039325;28;20455;-80
2023/01/31 02:03:33;;;;;;;14.60;2.90;;;;;;;;;;5035908;28;20488;-80
2023/01/31 02:06:01;;;;;;;10.77;2.50;;;;;;;;;;5038300;28;20501;-79
2023/01/31 02:08:30;;;;;;;18.07;3.57;;;;;;;;;;5039201;28;21018;-80
2023/01/31 02:10:58;;;;;;;11.73;2.87;;;;;;;;;;5039967;28;20472;-80
2023/01/31 02:13:25;;;;;;;11.73;2.50;;;;;;;;;;5039270;28;20488;-80
2023/01/31 02:15:52;;;;;;;34.67;4.47;;;;;;;;;;5039336;28;20457;-80
2023/01/31 02:18:21;;;;;;;16.97;3.77;;;;;;;;;;5038755;28;20491;-79
2023/01/31 02:21:05;;;;;;;18.37;4.20;;;;;;;;;;5040332;28;20463;-80
2023/01/31 02:23:59;;;;;;;26.03;3.77;;;;;;;;;;5038463;28;21012;-80
2023/01/31 02:26:43;;;;;;;15.10;3.63;;;;;;;;;;5004615;28;20455;-80
2023/01/31 02:29:24;;;;;;;16.47;4.07;;;;;;;;;;5038977;28;20468;-80
2023/01/31 02:32:11;;;;;;;18.00;3.63;;;;;;;;;;5038310;28;20533;-80
2023/01/31 02:34:44;;;;;;;13.17;3.33;;;;;;;;;;5038380;28;20512;-80
2023/01/31 02:37:15;;;;;;;30.10;4.10;;;;;;;;;;5036897;28;20479;-80
2023/01/31 02:39:43;;;;;;;25.37;3.77;;;;;;;;;;5038516;28;20486;-80
2023/01/31 02:42:14;;;;;;;16.03;3.40;;;;;;;;;;5039785;28;20488;-79
2023/01/31 02:44:58;;;;;;;31.53;4.70;;;;;;;;;;5038633;28;20863;-80
2023/01/31 02:47:29;;;;;;;22.40;3.60;;;;;;;;;;5039183;28;21040;-80
2023/01/31 02:50:01;;;;;;;13.87;4.67;;;;;;;;;;5039512;28;20476;-80
2023/01/31 02:52:31;;;;;;;13.23;3.40;;;;;;;;;;5040595;28;20462;-79
2023/01/31 02:57:47;;;;;;;26.83;4.50;;;;;;;;;;5037618;28;20452;-79
2023/01/31 03:00:14;;;;;;;13.37;3.70;;;;;;;;;;5040293;28;20456;-80
2023/01/31 03:02:40;;;;;;;18.37;4.67;;;;;;;;;;5037299;28;21166;-80
2023/01/31 03:05:12;;;;;;;29.03;4.40;;;;;;;;;;5039008;28;20536;-80
2023/01/31 03:07:39;;;;;;;18.50;4.00;;;;;;;;;;5037823;28;20957;-80
2023/01/31 03:10:13;;;;;;;30.20;4.63;;;;;;;;;;5038475;28;20460;-80
2023/01/31 03:12:48;;;;;;;13.53;3.87;;;;;;;;;;5038193;28;20471;-80
2023/01/31 03:17:30;;;;;;;17.40;4.07;;;;;;;;;;5037357;28;20456;-79
2023/01/31 03:18:21;;;;;;;13.97;2.63;;;;;;;;;;5037502;28;20492;-78
2023/01/31 03:20:52;;;;;;;19.13;3.73;;;;;;;;;;5036286;28;20797;-80
2023/01/31 03:23:20;;;;;;;10.70;4.50;;;;;;;;;;5035323;28;20473;-81
2023/01/31 03:25:48;;;;;;;16.13;4.07;;;;;;;;;;5039197;28;20451;-80
2023/01/31 03:28:16;;;;;;;17.83;4.40;;;;;;;;;;5038050;28;20490;-80
2023/01/31 03:30:45;;;;;;;19.77;4.60;;;;;;;;;;5040158;28;20503;-80
2023/01/31 03:33:15;;;;;;;19.67;3.23;;;;;;;;;;5035978;28;20471;-80
2023/01/31 03:35:42;;;;;;;33.27;5.23;;;;;;;;;;5038395;28;21170;-79
2023/01/31 03:38:11;;;;;;;22.67;4.13;;;;;;;;;;5039259;28;20477;-80
2023/01/31 03:40:40;;;;;;;25.03;5.90;;;;;;;;;;5039102;28;20869;-80
2023/01/31 03:43:12;;;;;;;34.63;4.90;;;;;;;;;;5036122;28;20469;-80
2023/01/31 03:45:41;;;;;;;18.90;4.07;;;;;;;;;;5039027;28;20455;-78
2023/01/31 03:48:12;;;;;;;14.10;3.80;;;;;;;;;;5038446;28;20480;-80
2023/01/31 03:50:41;;;;;;;13.90;3.20;;;;;;;;;;5044209;28;20888;-80
2023/01/31 03:53:10;;;;;;;14.20;3.60;;;;;;;;;;5041856;28;20480;-79
2023/01/31 03:55:42;;;;;;;15.27;4.67;;;;;;;;;;5043382;28;20445;-81
2023/01/31 03:58:11;;;;;;;18.53;3.10;;;;;;;;;;5042935;28;20464;-79
2023/01/31 04:00:38;;;;;;;25.17;3.93;;;;;;;;;;5041553;28;20554;-80
2023/01/31 04:03:08;;;;;;;22.50;4.10;;;;;;;;;;5041957;28;21398;-81
2023/01/31 04:05:34;;;;;;;20.47;4.10;;;;;;;;;;5037808;28;20487;-80
2023/01/31 04:08:02;;;;;;;13.63;4.50;;;;;;;;;;5041770;28;20467;-80
2023/01/31 04:10:30;;;;;;;21.43;3.90;;;;;;;;;;5042388;28;20494;-80
2023/01/31 04:12:58;;;;;;;13.20;3.30;;;;;;;;;;5042082;28;20508;-80
2023/01/31 04:15:24;;;;;;;13.13;3.53;;;;;;;;;;5040295;28;20455;-80
2023/01/31 04:17:50;;;;;;;19.13;3.50;;;;;;;;;;5040791;28;20465;-80
2023/01/31 04:20:17;;;;;;;10.73;2.80;;;;;;;;;;5043368;28;20459;-79
2023/01/31 04:22:43;;;;;;;20.13;4.20;;;;;;;;;;5037208;28;20476;-80
2023/01/31 04:25:10;;;;;;;13.70;3.17;;;;;;;;;;5043550;28;20460;-80
2023/01/31 04:27:37;;;;;;;16.73;3.10;;;;;;;;;;5040971;28;20461;-81
2023/01/31 04:30:06;;;;;;;25.03;3.10;;;;;;;;;;5041442;28;20895;-80
2023/01/31 04:32:33;;;;;;;17.20;4.03;;;;;;;;;;5040917;28;20460;-81
2023/01/31 04:34:59;;;;;;;24.90;3.83;;;;;;;;;;5043212;28;20483;-81
2023/01/31 04:37:27;;;;;;;10.73;2.63;;;;;;;;;;5042139;28;20828;-79
2023/01/31 04:39:53;;;;;;;21.47;6.33;;;;;;;;;;5040238;28;20491;-81
2023/01/31 04:42:19;;;;;;;25.60;4.20;;;;;;;;;;5042368;28;20447;-80
2023/01/31 04:44:46;;;;;;;12.43;3.47;;;;;;;;;;5042043;28;20477;-78
2023/01/31 04:47:13;;;;;;;12.67;3.77;;;;;;;;;;5040690;28;20834;-79
2023/01/31 04:49:42;;;;;;;25.00;3.83;;;;;;;;;;5039502;28;20488;-80
2023/01/31 04:52:09;;;;;;;21.03;3.67;;;;;;;;;;5040857;28;20496;-80
2023/01/31 04:54:36;;;;;;;18.43;3.80;;;;;;;;;;5041104;28;20545;-80
2023/01/31 04:57:02;;;;;;;15.53;4.43;;;;;;;;;;5041948;28;20467;-79
2023/01/31 04:59:29;;;;;;;19.07;4.10;;;;;;;;;;5041052;28;20468;-79
2023/01/31 05:01:56;;;;;;;12.50;3.50;;;;;;;;;;5039939;28;20459;-80
2023/01/31 05:04:25;;;;;;;15.90;3.70;;;;;;;;;;5037705;28;20874;-80
2023/01/31 05:06:51;;;;;;;8.93;4.27;;;;;;;;;;5040592;28;21079;-80
2023/01/31 05:09:18;;;;;;;17.97;5.17;;;;;;;;;;5040580;28;20469;-80
2023/01/31 05:11:45;;;;;;;16.37;3.50;;;;;;;;;;5040023;28;20466;-80
2023/01/31 05:14:12;;;;;;;19.17;4.13;;;;;;;;;;5040742;28;20896;-80
2023/01/31 05:16:38;;;;;;;30.97;3.67;;;;;;;;;;5038979;28;20461;-80
2023/01/31 05:19:05;;;;;;;14.77;3.70;;;;;;;;;;5040965;28;20469;-79
2023/01/31 05:21:53;;;;;;;9.53;3.07;;;;;;;;;;5036532;28;20456;-79
2023/01/31 05:24:20;;;;;;;10.80;3.00;;;;;;;;;;5038754;28;20473;-80
2023/01/31 05:26:49;;;;;;;16.87;3.27;;;;;;;;;;5040953;28;20502;-78
2023/01/31 05:29:16;;;;;;;22.40;3.80;;;;;;;;;;5039891;28;20530;-79
2023/01/31 05:31:43;;;;;;;17.37;4.23;;;;;;;;;;5035962;28;20833;-80
2023/01/31 05:34:13;;;;;;;18.13;3.93;;;;;;;;;;5039321;28;20481;-79
2023/01/31 05:36:41;;;;;;;13.17;3.73;;;;;;;;;;5040118;28;20570;-80
2023/01/31 05:39:08;;;;;;;23.37;3.40;;;;;;;;;;5038826;28;20550;-80
2023/01/31 05:41:34;;;;;;;16.03;3.93;;;;;;;;;;5036422;28;20560;-80
2023/01/31 05:44:01;;;;;;;9.93;3.03;;;;;;;;;;5038388;28;20481;-80
2023/01/31 05:46:27;;;;;;;17.43;3.73;;;;;;;;;;5034963;28;20467;-79
2023/01/31 05:48:53;;;;;;;10.47;2.53;;;;;;;;;;5036346;28;20496;-80
2023/01/31 05:51:20;;;;;;;16.27;3.90;;;;;;;;;;5037470;28;20471;-80
2023/01/31 05:53:48;;;;;;;23.53;4.53;;;;;;;;;;5037193;28;20480;-80
2023/01/31 05:56:15;;;;;;;15.30;4.50;;;;;;;;;;5040513;28;20490;-79
2023/01/31 05:58:41;;;;;;;19.90;3.87;;;;;;;;;;5038788;28;20552;-80
2023/01/31 06:01:08;;;;;;;15.07;3.23;;;;;;;;;;5039219;28;20461;-80
2023/01/31 06:03:34;;;;;;;20.40;5.20;;;;;;;;;;5040014;28;20477;-80
2023/01/31 06:06:01;;;;;;;17.43;3.43;;;;;;;;;;5036706;28;20464;-79
2023/01/31 06:08:28;;;;;;;14.87;3.50;;;;;;;;;;5039006;28;20481;-80
2023/01/31 06:10:55;;;;;;;18.73;4.17;;;;;;;;;;5039920;28;20465;-80
2023/01/31 06:13:22;;;;;;;18.77;3.60;;;;;;;;;;5039086;28;20472;-80
2023/01/31 06:15:49;;;;;;;15.17;2.90;;;;;;;;;;5039310;28;20456;-80
2023/01/31 06:18:16;;;;;;;28.97;4.90;;;;;;;;;;5039451;28;20486;-79
2023/01/31 06:20:42;;;;;;;23.63;4.33;;;;;;;;;;5040083;28;20460;-80
2023/01/31 06:23:09;;;;;;;27.30;5.50;;;;;;;;;;5038331;28;20483;-80
2023/01/31 06:25:35;;;;;;;19.23;5.80;;;;;;;;;;5037595;28;20812;-79
2023/01/31 06:28:03;;;;;;;14.63;4.60;;;;;;;;;;5040546;28;21380;-80
2023/01/31 06:30:29;;;;;;;22.90;5.83;;;;;;;;;;5037123;28;20546;-79
2023/01/31 06:32:56;;;;;;;19.27;5.37;;;;;;;;;;5036915;28;20493;-79
2023/01/31 06:35:22;;;;;;;34.10;5.70;;;;;;;;;;5038579;28;20920;-79
2023/01/31 06:37:49;;;;;;;16.60;4.40;;;;;;;;;;5039414;28;20457;-80
2023/01/31 06:40:15;;;;;;;21.40;5.33;;;;;;;;;;5040603;28;20467;-80
2023/01/31 06:42:42;;;;;;;26.13;7.00;;;;;;;;;;5036415;28;20455;-80
2023/01/31 06:45:11;;;;;;;26.57;6.50;;;;;;;;;;5039566;28;20483;-79
2023/01/31 06:47:38;;;;;;;19.57;4.50;;;;;;;;;;5038354;28;20460;-80
2023/01/31 06:50:05;;;;;;;24.53;6.27;;;;;;;;;;5041473;28;20538;-79
2023/01/31 06:52:32;;;;;;;17.07;6.87;;;;;;;;;;5037667;28;20435;-79
2023/01/31 06:54:58;;;;;;;22.30;5.23;;;;;;;;;;5037307;28;20468;-80
2023/01/31 06:57:24;;;;;;;16.43;4.20;;;;;;;;;;5039356;28;21013;-80
2023/01/31 06:59:52;;;;;;;24.33;6.20;;;;;;;;;;5039955;28;20473;-80
2023/01/31 07:02:20;;;;;;;20.33;6.10;;;;;;;;;;5036377;28;20834;-80
2023/01/31 07:04:47;;;;;;;26.23;7.00;;;;;;;;;;5039572;28;20495;-80
2023/01/31 07:07:13;;;;;;;21.80;7.80;;;;;;;;;;5040119;28;20464;-80
2023/01/31 07:09:39;;;;;;;19.37;6.20;;;;;;;;;;5040345;28;20472;-80
2023/01/31 07:12:06;;;;;;;20.07;6.93;;;;;;;;;;5038993;28;20444;-79
2023/01/31 07:14:32;;;;;;;33.13;8.60;;;;;;;;;;5037065;28;20563;-81
2023/01/31 07:16:59;;;;;;;40.13;7.47;;;;;;;;;;5038909;28;20843;-81
2023/01/31 07:19:27;;;;;;;19.87;7.17;;;;;;;;;;5040734;28;20472;-80
2023/01/31 07:21:53;;;;;;;31.63;7.03;;;;;;;;;;5040964;28;20448;-80
2023/01/31 07:24:19;;;;;;;20.87;6.63;;;;;;;;;;5041125;28;20514;-80
2023/01/31 07:26:46;;;;;;;19.43;6.23;;;;;;;;;;5042414;28;21077;-80
2023/01/31 07:29:12;;;;;;;18.20;8.00;;;;;;;;;;5040797;28;20463;-80
2023/01/31 07:31:39;;;;;;;20.63;7.00;;;;;;;;;;5042796;28;20464;-80
2023/01/31 07:34:06;;;;;;;18.73;6.30;;;;;;;;;;5041891;28;20478;-80
2023/01/31 07:36:38;;;;;;;19.27;5.80;;;;;;;;;;5043990;28;20448;-78
2023/01/31 07:39:05;;;;;;;21.00;6.90;;;;;;;;;;5037668;28;20491;-80
2023/01/31 07:41:31;;;;;;;24.13;7.40;;;;;;;;;;5043184;28;20542;-80
2023/01/31 07:43:58;;;;;;;30.63;10.03;;;;;;;;;;5038898;28;20468;-80
2023/01/31 07:46:25;;;;;;;34.77;6.83;;;;;;;;;;5042027;28;20468;-80
2023/01/31 07:48:51;;;;;;;22.90;6.93;;;;;;;;;;5041916;28;20471;-79
2023/01/31 07:51:17;;;;;;;24.33;7.80;;;;;;;;;;5043072;28;21228;-80
2023/01/31 07:53:45;;;;;;;21.50;9.20;;;;;;;;;;5041394;28;20476;-80
2023/01/31 07:56:12;;;;;;;34.43;9.93;;;;;;;;;;5039161;28;20472;-80
2023/01/31 07:58:40;;;;;;;27.97;8.60;;;;;;;;;;5040898;28;21031;-80
2023/01/31 08:03:51;;;;;;;25.10;9.50;;;;;;;;;;5038068;28;20479;-80
2023/01/31 08:06:18;;;;;;;24.40;10.10;;;;;;;;;;5041681;28;20463;-80
2023/01/31 08:08:46;;;;;;;31.53;9.30;;;;;;;;;;5041165;28;20818;-78
2023/01/31 08:11:12;;;;;;;25.90;9.63;;;;;;;;;;5041583;28;20467;-79
2023/01/31 08:13:39;;;;;;;18.87;11.10;;;;;;;;;;5041489;28;20475;-80
2023/01/31 08:16:06;;;;;;;30.27;10.83;;;;;;;;;;5043615;28;20468;-79
2023/01/31 08:18:33;;;;;;;26.17;10.77;;;;;;;;;;5041973;28;20830;-80
2023/01/31 08:20:59;;;;;;;35.23;13.53;;;;;;;;;;5044878;28;20456;-80
2023/01/31 08:23:27;;;;;;;36.63;11.37;;;;;;;;;;5042528;28;21021;-80
2023/01/31 08:25:59;;;;;;;28.30;12.17;;;;;;;;;;5042043;28;20448;-80
2023/01/31 08:28:25;;;;;;;28.67;10.67;;;;;;;;;;5042475;28;21004;-80
2023/01/31 08:30:51;;;;;;;25.87;10.70;;;;;;;;;;5043700;28;20467;-79
2023/01/31 08:33:17;;;;;;;42.30;11.10;;;;;;;;;;5041112;28;20504;-80
2023/01/31 08:35:44;;;;;;;26.10;10.70;;;;;;;;;;5041156;28;20440;-80
2023/01/31 08:38:11;;;;;;;26.93;11.43;;;;;;;;;;5041483;28;20723;-80
2023/01/31 08:40:37;;;;;;;19.93;9.77;;;;;;;;;;5040462;28;20456;-80
2023/01/31 08:43:05;;;;;;;32.50;11.77;;;;;;;;;;5040315;28;20478;-80
2023/01/31 08:45:32;;;;;;;26.47;11.00;;;;;;;;;;5041487;28;20487;-80
2023/01/31 08:47:59;;;;;;;20.57;9.43;;;;;;;;;;5040804;28;20459;-80
2023/01/31 08:50:27;;;;;;;27.90;12.03;;;;;;;;;;5040544;28;20464;-79
2023/01/31 08:52:54;;;;;;;23.93;12.13;;;;;;;;;;5032553;28;20533;-80
2023/01/31 08:55:20;;;;;;;26.13;9.93;;;;;;;;;;5053867;28;20455;-79
2023/01/31 08:57:47;;;;;;;27.27;11.17;;;;;;;;;;5039778;28;20835;-80
2023/01/31 09:00:16;;;;;;;22.83;10.67;;;;;;;;;;5039913;28;20467;-79
2023/01/31 09:02:42;;;;;;;36.83;12.57;;;;;;;;;;5040095;28;20456;-80
2023/01/31 09:05:09;;;;;;;26.07;10.70;;;;;;;;;;5037905;28;20500;-80
2023/01/31 09:07:36;;;;;;;22.00;10.17;;;;;;;;;;5037890;28;20456;-80
2023/01/31 09:10:02;;;;;;;39.00;13.47;;;;;;;;;;5040828;28;20448;-80
2023/01/31 09:12:28;;;;;;;22.13;11.03;;;;;;;;;;5038788;28;20886;-80
2023/01/31 09:14:55;;;;;;;29.20;12.70;;;;;;;;;;5036711;28;20473;-80
2023/01/31 09:17:23;;;;;;;26.00;10.77;;;;;;;;;;5042178;28;20461;-80
2023/01/31 09:19:49;;;;;;;26.77;11.27;;;;;;;;;;5041609;28;20469;-79
2023/01/31 09:22:16;;;;;;;31.60;12.90;;;;;;;;;;5040170;28;20880;-79
2023/01/31 09:24:44;;;;;;;24.40;11.13;;;;;;;;;;5040503;28;20476;-78
2023/01/31 09:27:11;;;;;;;32.53;11.10;;;;;;;;;;5043230;28;20457;-79
2023/01/31 09:29:37;;;;;;;24.97;11.10;;;;;;;;;;5039306;28;20896;-79
2023/01/31 09:32:04;;;;;;;24.30;9.97;;;;;;;;;;5040237;28;20454;-80
2023/01/31 09:34:32;;;;;;;35.40;11.90;;;;;;;;;;5041646;28;20483;-79
2023/01/31 09:36:58;;;;;;;20.13;12.33;;;;;;;;;;5041681;28;20440;-78
2023/01/31 09:39:26;;;;;;;23.80;12.67;;;;;;;;;;5040318;28;20473;-78
2023/01/31 09:41:54;;;;;;;27.57;10.90;;;;;;;;;;5040709;28;20460;-80
2023/01/31 09:44:23;;;;;;;23.00;10.03;;;;;;;;;;5039948;28;20479;-80
2023/01/31 09:46:53;;;;;;;24.67;11.60;;;;;;;;;;5041184;28;20445;-80
2023/01/31 09:49:22;;;;;;;19.90;10.63;;;;;;;;;;5039412;28;20468;-80
2023/01/31 09:51:56;;;;;;;20.03;10.17;;;;;;;;;;5040510;28;20453;-79
2023/01/31 09:54:26;;;;;;;32.13;12.77;;;;;;;;;;5038537;28;20475;-80
2023/01/31 09:56:59;;;;;;;28.77;10.47;;;;;;;;;;5038623;28;20452;-80
2023/01/31 09:59:30;;;;;;;17.13;10.70;;;;;;;;;;5038635;28;20480;-79
2023/01/31 10:02:00;;;;;;;20.20;9.87;;;;;;;;;;5039136;28;20463;-79
2023/01/31 10:04:41;;;;;;;33.10;10.50;;;;;;;;;;5038595;28;20531;-80
2023/01/31 10:07:13;;;;;;;28.47;11.10;;;;;;;;;;5039736;28;20461;-79
2023/01/31 10:09:42;;;;;;;28.23;9.90;;;;;;;;;;5038614;28;20475;-80
2023/01/31 10:12:11;;;;;;;29.23;10.40;;;;;;;;;;5039821;28;20467;-80
2023/01/31 10:14:42;;;;;;;23.87;10.73;;;;;;;;;;5039150;28;20504;-80
2023/01/31 10:17:12;;;;;;;28.60;11.03;;;;;;;;;;5039510;28;20532;-80
2023/01/31 10:19:44;;;;;;;27.17;10.07;;;;;;;;;;5040821;28;20467;-79
2023/01/31 10:22:15;;;;;;;28.67;11.67;;;;;;;;;;5018879;28;20471;-80
2023/01/31 10:24:44;;;;;;;25.20;9.50;;;;;;;;;;5037740;28;20472;-80
2023/01/31 10:27:14;;;;;;;25.00;9.37;;;;;;;;;;5040722;28;20464;-80
2023/01/31 10:29:42;;;;;;;21.03;8.90;;;;;;;;;;5038194;28;20469;-81
2023/01/31 10:32:14;;;;;;;30.80;10.17;;;;;;;;;;5040168;28;20452;-79
2023/01/31 10:34:42;;;;;;;19.07;8.63;;;;;;;;;;5040531;28;20488;-80
2023/01/31 10:37:12;;;;;;;28.17;11.60;;;;;;;;;;5039992;28;20456;-80
2023/01/31 10:39:42;;;;;;;28.53;9.87;;;;;;;;;;5039033;28;20850;-80
2023/01/31 10:42:14;;;;;;;26.30;10.23;;;;;;;;;;5040602;28;20514;-79
2023/01/31 10:44:42;;;;;;;18.43;8.77;;;;;;;;;;5041019;28;20473;-80
2023/01/31 10:47:12;;;;;;;28.23;11.20;;;;;;;;;;5038069;28;20522;-80
2023/01/31 10:49:38;;;;;;;29.40;11.90;;;;;;;;;;5040041;28;20480;-80
2023/01/31 10:52:14;;;;;;;19.20;11.20;;;;;;;;;;5039811;28;20811;-80
2023/01/31 10:54:53;;;;;;;25.77;10.87;;;;;;;;;;5038994;28;20508;-80
2023/01/31 10:57:19;;;;;;;20.90;8.37;;;;;;;;;;5044269;28;20456;-80
2023/01/31 10:59:47;;;;;;;19.00;8.10;;;;;;;;;;5043943;28;20490;-80
2023/01/31 11:02:18;;;;;;;16.70;7.77;;;;;;;;;;5043685;28;20452;-80
2023/01/31 11:04:45;;;;;;;17.97;9.00;;;;;;;;;;5042652;28;20871;-80
2023/01/31 11:07:11;;;;;;;20.47;7.57;;;;;;;;;;5042684;28;20462;-80
2023/01/31 11:09:40;;;;;;;24.17;8.47;;;;;;;;;;5039467;28;20479;-80
2023/01/31 11:12:08;;;;;;;24.07;8.57;;;;;;;;;;5039943;28;20486;-80
2023/01/31 11:14:35;;;;;;;17.57;8.90;;;;;;;;;;5041856;28;20486;-80
2023/01/31 11:17:05;;;;;;;20.70;9.60;;;;;;;;;;5042603;28;21042;-80
2023/01/31 11:19:37;;;;;;;17.80;8.57;;;;;;;;;;5042488;28;20468;-81
2023/01/31 11:22:03;;;;;;;20.73;9.50;;;;;;;;;;5044199;28;20448;-80
2023/01/31 11:24:32;;;;;;;12.00;8.83;;;;;;;;;;5043848;28;20479;-80
2023/01/31 11:27:00;;;;;;;22.40;8.33;;;;;;;;;;5044027;28;20954;-81
2023/01/31 11:29:33;;;;;;;19.43;9.20;;;;;;;;;;5040346;28;20490;-80
2023/01/31 11:32:01;;;;;;;20.50;8.53;;;;;;;;;;5043403;28;20452;-80
2023/01/31 11:34:29;;;;;;;19.77;8.77;;;;;;;;;;5042513;28;21018;-79
2023/01/31 11:37:03;;;;;;;23.63;9.70;;;;;;;;;;5043178;28;20459;-81
2023/01/31 11:39:32;;;;;;;18.20;8.83;;;;;;;;;;5042340;28;20491;-80
2023/01/31 11:42:04;;;;;;;16.00;7.70;;;;;;;;;;5043173;28;20452;-80
2023/01/31 11:44:34;;;;;;;15.63;8.30;;;;;;;;;;5039999;28;20495;-80
2023/01/31 11:47:03;;;;;;;12.13;7.03;;;;;;;;;;5043471;28;21023;-80
2023/01/31 11:49:32;;;;;;;11.13;7.40;;;;;;;;;;5040910;28;20469;-80
2023/01/31 11:52:00;;;;;;;11.70;6.60;;;;;;;;;;5043825;28;20440;-81
2023/01/31 11:54:28;;;;;;;12.20;7.70;;;;;;;;;;5040674;28;20480;-80
2023/01/31 11:56:55;;;;;;;14.17;5.63;;;;;;;;;;5041364;28;20467;-80
2023/01/31 11:59:24;;;;;;;11.93;5.50;;;;;;;;;;5042570;28;20479;-82
2023/01/31 12:01:53;;;;;;;13.33;7.90;;;;;;;;;;5043812;28;20452;-80
2023/01/31 12:04:22;;;;;;;13.87;6.80;;;;;;;;;;5040673;28;20484;-80
2023/01/31 12:07:00;;;;;;;18.80;6.40;;;;;;;;;;5041381;28;20479;-80
2023/01/31 12:09:28;;;;;;;9.40;5.17;;;;;;;;;;5042530;28;20472;-80
2023/01/31 12:11:55;;;;;;;11.27;6.20;;;;;;;;;;5039824;28;20460;-80
2023/01/31 12:14:23;;;;;;;10.10;5.87;;;;;;;;;;5040682;28;20472;-80
2023/01/31 12:16:54;;;;;;;20.33;5.93;;;;;;;;;;5041057;28;20482;-80
2023/01/31 12:19:24;;;;;;;13.53;6.57;;;;;;;;;;5042654;28;20556;-80
2023/01/31 12:21:57;;;;;;;14.07;5.80;;;;;;;;;;5042890;28;20528;-80
2023/01/31 12:24:34;;;;;;;16.83;6.10;;;;;;;;;;5041667;28;20490;-81
2023/01/31 12:27:04;;;;;;;11.03;7.97;;;;;;;;;;5043726;28;20480;-79
2023/01/31 12:29:48;;;;;;;7.77;5.70;;;;;;;;;;5038555;28;20480;-79
2023/01/31 12:32:23;;;;;;;13.27;4.87;;;;;;;;;;5029004;28;20456;-79
2023/01/31 12:35:12;;;;;;;8.90;4.77;;;;;;;;;;5039737;28;20476;-80
2023/01/31 12:37:46;;;;;;;7.70;5.30;;;;;;;;;;5042112;28;20466;-80
2023/01/31 12:40:25;;;;;;;10.60;4.70;;;;;;;;;;5042167;28;20463;-80
2023/01/31 12:42:56;;;;;;;10.03;4.80;;;;;;;;;;5040976;28;20825;-80
2023/01/31 12:45:31;;;;;;;6.17;4.37;;;;;;;;;;5042685;28;20488;-81
2023/01/31 12:48:12;;;;;;;10.60;4.43;;;;;;;;;;5041914;28;20816;-80
2023/01/31 12:50:45;;;;;;;7.20;4.30;;;;;;;;;;5040888;28;20459;-81
2023/01/31 12:53:29;;;;;;;7.33;3.87;;;;;;;;;;5039952;28;20471;-80
2023/01/31 12:56:03;;;;;;;9.60;4.07;;;;;;;;;;5040358;28;20452;-81
2023/01/31 12:58:38;;;;;;;3.83;3.07;;;;;;;;;;5039872;28;20498;-80
2023/01/31 13:01:11;;;;;;;9.00;4.17;;;;;;;;;;5040314;28;20885;-80
2023/01/31 13:03:42;;;;;;;6.90;4.00;;;;;;;;;;5040282;28;20465;-80
2023/01/31 13:06:14;;;;;;;9.30;5.67;;;;;;;;;;5041942;28;20534;-80
2023/01/31 13:08:43;;;;;;;4.17;3.13;;;;;;;;;;5041156;28;20464;-80
2023/01/31 13:11:13;;;;;;;7.13;3.90;;;;;;;;;;5039870;28;20468;-80
2023/01/31 13:13:42;;;;;;;4.40;3.20;;;;;;;;;;5040047;28;20476;-80
2023/01/31 13:16:12;;;;;;;5.83;3.07;;;;;;;;;;5040807;28;20437;-80
2023/01/31 13:18:39;;;;;;;5.57;3.13;;;;;;;;;;5023210;28;20551;-80
2023/01/31 13:21:06;;;;;;;3.87;3.50;;;;;;;;;;5039200;28;20464;-79
2023/01/31 13:23:36;;;;;;;9.50;3.00;;;;;;;;;;5041301;28;20476;-80
2023/01/31 13:26:06;;;;;;;7.00;2.63;;;;;;;;;;5040218;28;20477;-78
2023/01/31 13:28:34;;;;;;;5.50;3.17;;;;;;;;;;5039506;28;20480;-80
2023/01/31 13:31:03;;;;;;;4.47;3.20;;;;;;;;;;5039855;28;20818;-80
2023/01/31 13:33:32;;;;;;;4.30;3.40;;;;;;;;;;5040326;28;20471;-79
2023/01/31 13:36:08;;;;;;;4.27;3.20;;;;;;;;;;5040030;28;20479;-79
2023/01/31 13:38:39;;;;;;;5.70;3.47;;;;;;;;;;5040319;28;20964;-80
2023/01/31 13:41:08;;;;;;;4.23;3.60;;;;;;;;;;5040097;28;20448;-80
2023/01/31 13:43:34;;;;;;;6.93;3.80;;;;;;;;;;5036378;28;20476;-79
2023/01/31 13:46:02;;;;;;;9.10;5.47;;;;;;;;;;5039799;28;20494;-80
2023/01/31 13:48:32;;;;;;;8.10;3.67;;;;;;;;;;5040406;28;20480;-79
2023/01/31 13:51:01;;;;;;;6.83;4.20;;;;;;;;;;5041136;28;20455;-79
2023/01/31 13:53:29;;;;;;;8.13;3.73;;;;;;;;;;5036442;28;20474;-79
2023/01/31 13:55:57;;;;;;;14.60;5.20;;;;;;;;;;5037934;28;21050;-80
2023/01/31 13:58:25;;;;;;;4.33;3.93;;;;;;;;;;5039989;28;20469;-80
2023/01/31 14:00:58;;;;;;;8.10;3.90;;;;;;;;;;5040249;28;20457;-80
2023/01/31 14:03:25;;;;;;;17.53;4.60;;;;;;;;;;5039698;28;20475;-79
2023/01/31 14:05:54;;;;;;;5.80;3.43;;;;;;;;;;5040077;28;20472;-79
2023/01/31 14:08:27;;;;;;;11.33;4.50;;;;;;;;;;5038704;28;20464;-80
2023/01/31 14:10:54;;;;;;;9.33;5.20;;;;;;;;;;5037055;28;21406;-79
2023/01/31 14:13:26;;;;;;;15.53;4.50;;;;;;;;;;5039415;28;20477;-80
2023/01/31 14:15:54;;;;;;;12.00;4.97;;;;;;;;;;5038916;28;20444;-80
2023/01/31 14:18:40;;;;;;;11.83;5.03;;;;;;;;;;5036378;28;20473;-80
2023/01/31 14:21:25;;;;;;;10.27;4.90;;;;;;;;;;5039770;28;20486;-79
2023/01/31 14:23:51;;;;;;;8.47;4.80;;;;;;;;;;5039123;28;20477;-80
2023/01/31 14:26:37;;;;;;;16.83;4.90;;;;;;;;;;5038830;28;20480;-80
2023/01/31 14:29:09;;;;;;;11.57;4.80;;;;;;;;;;5039038;28;21028;-80
2023/01/31 14:31:36;;;;;;;19.53;5.53;;;;;;;;;;5038782;28;20428;-80
2023/01/31 14:34:02;;;;;;;12.17;5.20;;;;;;;;;;5036828;28;20480;-80
2023/01/31 14:36:48;;;;;;;18.80;5.37;;;;;;;;;;5039471;28;20961;-80
2023/01/31 14:39:34;;;;;;;15.87;5.40;;;;;;;;;;5039526;28;20469;-79
2023/01/31 14:42:09;;;;;;;15.73;6.37;;;;;;;;;;5039956;28;20646;-80
2023/01/31 14:44:43;;;;;;;21.60;4.77;;;;;;;;;;5038561;28;20470;-80